sensor_id;sensor_type;location;lat;lon;timestamp;temperature;humidity
8043;DHT22;4064;48.132;11.366;2022-08-19T00:00:28;17.30;99.90
8043;DHT22;4064;48.132;11.366;2022-08-19T00:02:54;17.40;99.90
8043;DHT22;4064;48.132;11.366;2022-08-19T00:05:21;17.40;99.90
8043;DHT22;4064;48.132;11.366;2022-08-19T00:07:47;17.40;99.90
8043;DHT22;4064;48.132;11.366;2022-08-19T00:10:14;17.40;99.90
8043;DHT22;4064;48.132;11.366;2022-08-19T00:12:41;17.40;99.90
8043;DHT22;4064;48.132;11.366;2022-08-19T00:15:12;17.40;99.90
8043;DHT22;4064;48.132;11.366;2022-08-19T00:17:40;17.40;99.90
8043;DHT22;4064;48.132;11.366;2022-08-19T00:20:07;17.50;99.90
8043;DHT22;4064;48.132;11.366;2022-08-19T00:22:33;17.50;99.90
8043;DHT22;4064;48.132;11.366;2022-08-19T00:25:00;17.50;99.90
8043;DHT22;4064;48.132;11.366;2022-08-19T00:27:25;17.50;99.90
8043;DHT22;4064;48.132;11.366;2022-08-19T00:29:51;17.60;99.90
8043;DHT22;4064;48.132;11.366;2022-08-19T00:32:17;17.60;99.90
8043;DHT22;4064;48.132;11.366;2022-08-19T00:34:43;17.60;99.90
8043;DHT22;4064;48.132;11.366;2022-08-19T00:37:09;17.60;99.90
8043;DHT22;4064;48.132;11.366;2022-08-19T00:39:35;17.60;99.90
8043;DHT22;4064;48.132;11.366;2022-08-19T00:42:00;17.60;99.90
8043;DHT22;4064;48.132;11.366;2022-08-19T00:44:28;17.60;99.90
8043;DHT22;4064;48.132;11.366;2022-08-19T00:46:57;17.70;99.90
8043;DHT22;4064;48.132;11.366;2022-08-19T00:49:29;17.70;99.90
8043;DHT22;4064;48.132;11.366;2022-08-19T00:52:02;17.60;99.90
8043;DHT22;4064;48.132;11.366;2022-08-19T00:54:29;17.60;99.90
8043;DHT22;4064;48.132;11.366;2022-08-19T00:56:57;17.60;99.90
8043;DHT22;4064;48.132;11.366;2022-08-19T00:59:25;17.60;99.90
8043;DHT22;4064;48.132;11.366;2022-08-19T01:01:50;17.60;99.90
8043;DHT22;4064;48.132;11.366;2022-08-19T01:04:17;17.70;99.90
8043;DHT22;4064;48.132;11.366;2022-08-19T01:06:43;17.70;99.90
8043;DHT22;4064;48.132;11.366;2022-08-19T01:09:09;17.70;99.90
8043;DHT22;4064;48.132;11.366;2022-08-19T01:11:38;17.70;99.90
8043;DHT22;4064;48.132;11.366;2022-08-19T01:14:06;17.70;99.90
8043;DHT22;4064;48.132;11.366;2022-08-19T01:16:33;17.70;99.90
8043;DHT22;4064;48.132;11.366;2022-08-19T01:19:00;17.70;99.90
8043;DHT22;4064;48.132;11.366;2022-08-19T01:21:49;17.70;99.90
8043;DHT22;4064;48.132;11.366;2022-08-19T01:24:12;17.70;99.90
8043;DHT22;4064;48.132;11.366;2022-08-19T01:26:40;17.70;99.90
8043;DHT22;4064;48.132;11.366;2022-08-19T01:29:08;17.70;99.90
8043;DHT22;4064;48.132;11.366;2022-08-19T01:31:35;17.70;99.90
8043;DHT22;4064;48.132;11.366;2022-08-19T01:34:02;17.60;99.90
8043;DHT22;4064;48.132;11.366;2022-08-19T01:36:43;17.60;99.90
8043;DHT22;4064;48.132;11.366;2022-08-19T01:39:16;17.70;99.90
8043;DHT22;4064;48.132;11.366;2022-08-19T01:41:42;17.60;99.90
8043;DHT22;4064;48.132;11.366;2022-08-19T01:44:09;17.60;99.90
8043;DHT22;4064;48.132;11.366;2022-08-19T01:46:35;17.60;99.90
8043;DHT22;4064;48.132;11.366;2022-08-19T01:49:04;17.60;99.90
8043;DHT22;4064;48.132;11.366;2022-08-19T01:51:30;17.60;99.90
8043;DHT22;4064;48.132;11.366;2022-08-19T01:53:56;17.50;99.90
8043;DHT22;4064;48.132;11.366;2022-08-19T01:56:23;17.60;99.90
8043;DHT22;4064;48.132;11.366;2022-08-19T01:58:53;17.50;99.90
8043;DHT22;4064;48.132;11.366;2022-08-19T02:01:19;17.50;99.90
8043;DHT22;4064;48.132;11.366;2022-08-19T02:03:45;17.50;99.90
8043;DHT22;4064;48.132;11.366;2022-08-19T02:06:11;17.50;99.90
8043;DHT22;4064;48.132;11.366;2022-08-19T02:11:27;17.50;99.90
8043;DHT22;4064;48.132;11.366;2022-08-19T02:13:54;17.50;99.90
8043;DHT22;4064;48.132;11.366;2022-08-19T02:16:21;17.50;99.90
8043;DHT22;4064;48.132;11.366;2022-08-19T02:18:47;17.40;99.90
8043;DHT22;4064;48.132;11.366;2022-08-19T02:21:21;17.40;99.90
8043;DHT22;4064;48.132;11.366;2022-08-19T02:23:47;17.50;99.90
8043;DHT22;4064;48.132;11.366;2022-08-19T02:26:13;17.50;99.90
8043;DHT22;4064;48.132;11.366;2022-08-19T02:28:40;17.40;99.90
8043;DHT22;4064;48.132;11.366;2022-08-19T02:31:17;17.40;99.90
8043;DHT22;4064;48.132;11.366;2022-08-19T02:33:45;17.50;99.90
8043;DHT22;4064;48.132;11.366;2022-08-19T02:36:13;17.50;99.90
8043;DHT22;4064;48.132;11.366;2022-08-19T02:38:39;17.50;99.90
8043;DHT22;4064;48.132;11.366;2022-08-19T02:41:15;17.50;99.90
8043;DHT22;4064;48.132;11.366;2022-08-19T02:43:41;17.60;99.90
8043;DHT22;4064;48.132;11.366;2022-08-19T02:46:25;17.60;99.90
8043;DHT22;4064;48.132;11.366;2022-08-19T02:48:55;17.60;99.90
8043;DHT22;4064;48.132;11.366;2022-08-19T02:51:24;17.60;99.90
8043;DHT22;4064;48.132;11.366;2022-08-19T02:53:51;17.60;99.90
8043;DHT22;4064;48.132;11.366;2022-08-19T02:56:18;17.60;99.90
8043;DHT22;4064;48.132;11.366;2022-08-19T02:58:44;17.60;99.90
8043;DHT22;4064;48.132;11.366;2022-08-19T03:01:10;17.60;99.90
8043;DHT22;4064;48.132;11.366;2022-08-19T03:03:37;17.60;99.90
8043;DHT22;4064;48.132;11.366;2022-08-19T03:06:12;17.60;99.90
8043;DHT22;4064;48.132;11.366;2022-08-19T03:08:40;17.60;99.90
8043;DHT22;4064;48.132;11.366;2022-08-19T03:11:06;17.60;99.90
8043;DHT22;4064;48.132;11.366;2022-08-19T03:13:32;17.60;99.90
8043;DHT22;4064;48.132;11.366;2022-08-19T03:15:57;17.60;99.90
8043;DHT22;4064;48.132;11.366;2022-08-19T03:18:23;17.60;99.90
8043;DHT22;4064;48.132;11.366;2022-08-19T03:20:51;17.60;99.90
8043;DHT22;4064;48.132;11.366;2022-08-19T03:23:22;17.60;99.90
8043;DHT22;4064;48.132;11.366;2022-08-19T03:25:49;17.60;99.90
8043;DHT22;4064;48.132;11.366;2022-08-19T03:28:16;17.60;99.90
8043;DHT22;4064;48.132;11.366;2022-08-19T03:30:53;17.60;99.90
8043;DHT22;4064;48.132;11.366;2022-08-19T03:33:22;17.60;99.90
8043;DHT22;4064;48.132;11.366;2022-08-19T03:36:03;17.60;99.90
8043;DHT22;4064;48.132;11.366;2022-08-19T03:38:29;17.60;99.90
8043;DHT22;4064;48.132;11.366;2022-08-19T03:40:54;17.60;99.90
8043;DHT22;4064;48.132;11.366;2022-08-19T03:43:20;17.70;99.90
8043;DHT22;4064;48.132;11.366;2022-08-19T03:45:46;17.70;99.90
8043;DHT22;4064;48.132;11.366;2022-08-19T03:48:14;17.70;99.90
8043;DHT22;4064;48.132;11.366;2022-08-19T03:50:42;17.70;99.90
8043;DHT22;4064;48.132;11.366;2022-08-19T03:53:08;17.70;99.90
8043;DHT22;4064;48.132;11.366;2022-08-19T03:55:39;17.70;99.90
8043;DHT22;4064;48.132;11.366;2022-08-19T03:58:04;17.70;99.90
8043;DHT22;4064;48.132;11.366;2022-08-19T04:00:32;17.70;99.90
8043;DHT22;4064;48.132;11.366;2022-08-19T04:02:58;17.70;99.90
8043;DHT22;4064;48.132;11.366;2022-08-19T04:05:25;17.70;99.90
8043;DHT22;4064;48.132;11.366;2022-08-19T04:07:52;17.70;99.90
8043;DHT22;4064;48.132;11.366;2022-08-19T04:10:18;17.70;99.90
8043;DHT22;4064;48.132;11.366;2022-08-19T04:12:44;17.70;99.90
8043;DHT22;4064;48.132;11.366;2022-08-19T04:15:10;17.70;99.90
8043;DHT22;4064;48.132;11.366;2022-08-19T04:17:36;17.70;99.90
8043;DHT22;4064;48.132;11.366;2022-08-19T04:20:02;17.60;99.90
8043;DHT22;4064;48.132;11.366;2022-08-19T04:22:27;17.60;99.90
8043;DHT22;4064;48.132;11.366;2022-08-19T04:24:53;17.60;99.90
8043;DHT22;4064;48.132;11.366;2022-08-19T04:27:19;17.70;99.90
8043;DHT22;4064;48.132;11.366;2022-08-19T04:29:44;17.70;99.90
8043;DHT22;4064;48.132;11.366;2022-08-19T04:32:10;17.70;99.90
8043;DHT22;4064;48.132;11.366;2022-08-19T04:34:36;17.70;99.90
8043;DHT22;4064;48.132;11.366;2022-08-19T04:37:05;17.70;99.90
8043;DHT22;4064;48.132;11.366;2022-08-19T04:39:37;17.70;99.90
8043;DHT22;4064;48.132;11.366;2022-08-19T04:42:22;17.80;99.90
8043;DHT22;4064;48.132;11.366;2022-08-19T04:45:13;17.80;99.90
8043;DHT22;4064;48.132;11.366;2022-08-19T04:47:41;17.80;99.90
8043;DHT22;4064;48.132;11.366;2022-08-19T04:50:08;17.80;99.90
8043;DHT22;4064;48.132;11.366;2022-08-19T04:52:38;17.80;99.90
8043;DHT22;4064;48.132;11.366;2022-08-19T04:55:11;17.80;99.90
8043;DHT22;4064;48.132;11.366;2022-08-19T04:57:56;17.80;99.90
8043;DHT22;4064;48.132;11.366;2022-08-19T05:00:22;17.80;99.90
8043;DHT22;4064;48.132;11.366;2022-08-19T05:02:47;17.80;99.90
8043;DHT22;4064;48.132;11.366;2022-08-19T05:05:14;17.80;99.90
8043;DHT22;4064;48.132;11.366;2022-08-19T05:07:40;17.80;99.90
8043;DHT22;4064;48.132;11.366;2022-08-19T05:10:06;17.80;99.90
8043;DHT22;4064;48.132;11.366;2022-08-19T05:12:33;17.80;99.90
8043;DHT22;4064;48.132;11.366;2022-08-19T05:14:59;17.90;99.90
8043;DHT22;4064;48.132;11.366;2022-08-19T05:17:26;17.90;99.90
8043;DHT22;4064;48.132;11.366;2022-08-19T05:19:52;17.90;99.90
8043;DHT22;4064;48.132;11.366;2022-08-19T05:22:37;17.90;99.90
8043;DHT22;4064;48.132;11.366;2022-08-19T05:25:06;17.90;99.90
8043;DHT22;4064;48.132;11.366;2022-08-19T05:27:32;17.90;99.90
8043;DHT22;4064;48.132;11.366;2022-08-19T05:29:58;17.90;99.90
8043;DHT22;4064;48.132;11.366;2022-08-19T05:32:25;17.90;99.90
8043;DHT22;4064;48.132;11.366;2022-08-19T05:34:51;17.90;99.90
8043;DHT22;4064;48.132;11.366;2022-08-19T05:37:17;17.90;99.90
8043;DHT22;4064;48.132;11.366;2022-08-19T05:39:43;18.00;99.90
8043;DHT22;4064;48.132;11.366;2022-08-19T05:42:11;18.00;99.90
8043;DHT22;4064;48.132;11.366;2022-08-19T05:44:40;18.00;99.90
8043;DHT22;4064;48.132;11.366;2022-08-19T05:47:14;18.00;99.90
8043;DHT22;4064;48.132;11.366;2022-08-19T05:49:42;18.00;99.90
8043;DHT22;4064;48.132;11.366;2022-08-19T05:52:10;18.00;99.90
8043;DHT22;4064;48.132;11.366;2022-08-19T05:54:39;18.10;99.90
8043;DHT22;4064;48.132;11.366;2022-08-19T05:57:07;18.10;99.90
8043;DHT22;4064;48.132;11.366;2022-08-19T05:59:33;18.20;99.90
8043;DHT22;4064;48.132;11.366;2022-08-19T06:02:01;18.20;99.90
8043;DHT22;4064;48.132;11.366;2022-08-19T06:04:27;18.20;99.90
8043;DHT22;4064;48.132;11.366;2022-08-19T06:06:54;18.20;99.90
8043;DHT22;4064;48.132;11.366;2022-08-19T06:09:21;18.20;99.90
8043;DHT22;4064;48.132;11.366;2022-08-19T06:11:48;18.20;99.90
8043;DHT22;4064;48.132;11.366;2022-08-19T06:14:16;18.20;99.90
8043;DHT22;4064;48.132;11.366;2022-08-19T06:16:43;18.20;99.90
8043;DHT22;4064;48.132;11.366;2022-08-19T06:19:15;18.10;99.90
8043;DHT22;4064;48.132;11.366;2022-08-19T06:21:43;18.20;99.90
8043;DHT22;4064;48.132;11.366;2022-08-19T06:24:12;18.20;99.90
8043;DHT22;4064;48.132;11.366;2022-08-19T06:26:40;18.20;99.90
8043;DHT22;4064;48.132;11.366;2022-08-19T06:29:12;18.20;99.90
8043;DHT22;4064;48.132;11.366;2022-08-19T06:31:42;18.20;99.90
8043;DHT22;4064;48.132;11.366;2022-08-19T06:34:08;18.20;99.90
8043;DHT22;4064;48.132;11.366;2022-08-19T06:36:36;18.20;99.90
8043;DHT22;4064;48.132;11.366;2022-08-19T06:39:07;18.20;99.90
8043;DHT22;4064;48.132;11.366;2022-08-19T06:41:38;18.20;99.90
8043;DHT22;4064;48.132;11.366;2022-08-19T06:44:05;18.20;99.90
8043;DHT22;4064;48.132;11.366;2022-08-19T06:46:31;18.20;99.90
8043;DHT22;4064;48.132;11.366;2022-08-19T06:48:57;18.10;99.90
8043;DHT22;4064;48.132;11.366;2022-08-19T06:51:24;18.20;99.90
8043;DHT22;4064;48.132;11.366;2022-08-19T06:53:52;18.20;99.90
8043;DHT22;4064;48.132;11.366;2022-08-19T06:56:22;18.20;99.90
8043;DHT22;4064;48.132;11.366;2022-08-19T06:58:50;18.30;99.90
8043;DHT22;4064;48.132;11.366;2022-08-19T07:01:19;18.30;99.90
8043;DHT22;4064;48.132;11.366;2022-08-19T07:03:45;18.30;99.90
8043;DHT22;4064;48.132;11.366;2022-08-19T07:06:14;18.30;99.90
8043;DHT22;4064;48.132;11.366;2022-08-19T07:08:43;18.40;99.90
8043;DHT22;4064;48.132;11.366;2022-08-19T07:11:12;18.40;99.90
8043;DHT22;4064;48.132;11.366;2022-08-19T07:13:40;18.40;99.90
8043;DHT22;4064;48.132;11.366;2022-08-19T07:16:12;18.40;99.90
8043;DHT22;4064;48.132;11.366;2022-08-19T07:18:38;18.50;99.90
8043;DHT22;4064;48.132;11.366;2022-08-19T07:21:05;18.50;99.90
8043;DHT22;4064;48.132;11.366;2022-08-19T07:23:32;18.60;99.90
8043;DHT22;4064;48.132;11.366;2022-08-19T07:25:58;18.60;99.90
8043;DHT22;4064;48.132;11.366;2022-08-19T07:28:23;18.60;99.90
8043;DHT22;4064;48.132;11.366;2022-08-19T07:30:49;18.60;99.90
8043;DHT22;4064;48.132;11.366;2022-08-19T07:33:16;18.60;99.90
8043;DHT22;4064;48.132;11.366;2022-08-19T07:35:43;18.60;99.90
8043;DHT22;4064;48.132;11.366;2022-08-19T07:38:09;18.60;99.90
8043;DHT22;4064;48.132;11.366;2022-08-19T07:40:35;18.70;99.90
8043;DHT22;4064;48.132;11.366;2022-08-19T07:43:02;18.70;99.90
8043;DHT22;4064;48.132;11.366;2022-08-19T07:45:27;18.80;99.90
8043;DHT22;4064;48.132;11.366;2022-08-19T07:47:54;18.90;99.90
8043;DHT22;4064;48.132;11.366;2022-08-19T07:50:21;19.00;99.90
8043;DHT22;4064;48.132;11.366;2022-08-19T07:52:48;19.10;99.90
8043;DHT22;4064;48.132;11.366;2022-08-19T07:55:16;19.20;99.90
8043;DHT22;4064;48.132;11.366;2022-08-19T07:57:42;19.30;99.90
8043;DHT22;4064;48.132;11.366;2022-08-19T08:00:12;19.40;99.90
8043;DHT22;4064;48.132;11.366;2022-08-19T08:02:38;19.40;99.90
8043;DHT22;4064;48.132;11.366;2022-08-19T08:05:05;19.40;99.90
8043;DHT22;4064;48.132;11.366;2022-08-19T08:07:49;19.40;99.90
8043;DHT22;4064;48.132;11.366;2022-08-19T08:10:34;19.40;99.90
8043;DHT22;4064;48.132;11.366;2022-08-19T08:12:59;19.30;99.90
8043;DHT22;4064;48.132;11.366;2022-08-19T08:15:25;19.20;99.90
8043;DHT22;4064;48.132;11.366;2022-08-19T08:17:51;19.20;99.90
8043;DHT22;4064;48.132;11.366;2022-08-19T08:20:18;19.10;99.90
8043;DHT22;4064;48.132;11.366;2022-08-19T08:22:45;19.00;99.90
8043;DHT22;4064;48.132;11.366;2022-08-19T08:25:30;19.00;99.90
8043;DHT22;4064;48.132;11.366;2022-08-19T08:27:56;19.00;99.90
8043;DHT22;4064;48.132;11.366;2022-08-19T08:30:26;19.00;99.90
8043;DHT22;4064;48.132;11.366;2022-08-19T08:32:53;18.90;99.90
8043;DHT22;4064;48.132;11.366;2022-08-19T08:35:21;18.90;99.90
8043;DHT22;4064;48.132;11.366;2022-08-19T08:37:48;18.90;99.90
8043;DHT22;4064;48.132;11.366;2022-08-19T08:43:38;18.80;99.90
8043;DHT22;4064;48.132;11.366;2022-08-19T08:46:13;18.80;99.90
8043;DHT22;4064;48.132;11.366;2022-08-19T08:51:32;18.70;99.90
8043;DHT22;4064;48.132;11.366;2022-08-19T08:53:59;18.60;99.90
8043;DHT22;4064;48.132;11.366;2022-08-19T08:56:27;18.70;99.90
8043;DHT22;4064;48.132;11.366;2022-08-19T08:59:20;18.60;99.90
8043;DHT22;4064;48.132;11.366;2022-08-19T09:01:46;18.60;99.90
8043;DHT22;4064;48.132;11.366;2022-08-19T09:04:12;18.60;99.90
8043;DHT22;4064;48.132;11.366;2022-08-19T09:09:35;18.50;99.90
8043;DHT22;4064;48.132;11.366;2022-08-19T09:12:10;18.50;99.90
8043;DHT22;4064;48.132;11.366;2022-08-19T09:17:11;18.50;99.90
8043;DHT22;4064;48.132;11.366;2022-08-19T09:22:31;18.40;99.90
8043;DHT22;4064;48.132;11.366;2022-08-19T09:24:57;18.50;99.90
8043;DHT22;4064;48.132;11.366;2022-08-19T09:27:24;18.40;99.90
8043;DHT22;4064;48.132;11.366;2022-08-19T09:29:52;18.50;99.90
8043;DHT22;4064;48.132;11.366;2022-08-19T09:32:20;18.50;99.90
8043;DHT22;4064;48.132;11.366;2022-08-19T09:34:46;18.50;99.90
8043;DHT22;4064;48.132;11.366;2022-08-19T09:37:13;18.50;99.90
8043;DHT22;4064;48.132;11.366;2022-08-19T09:39:39;18.50;99.90
8043;DHT22;4064;48.132;11.366;2022-08-19T09:42:09;18.50;99.90
8043;DHT22;4064;48.132;11.366;2022-08-19T09:44:41;18.50;99.90
8043;DHT22;4064;48.132;11.366;2022-08-19T09:47:09;18.50;99.90
8043;DHT22;4064;48.132;11.366;2022-08-19T09:49:35;18.50;99.90
8043;DHT22;4064;48.132;11.366;2022-08-19T09:52:01;18.60;99.90
8043;DHT22;4064;48.132;11.366;2022-08-19T09:54:27;18.60;99.90
8043;DHT22;4064;48.132;11.366;2022-08-19T09:56:55;18.60;99.90
8043;DHT22;4064;48.132;11.366;2022-08-19T09:59:21;18.60;99.90
8043;DHT22;4064;48.132;11.366;2022-08-19T10:01:46;18.50;99.90
8043;DHT22;4064;48.132;11.366;2022-08-19T10:04:12;18.60;99.90
8043;DHT22;4064;48.132;11.366;2022-08-19T10:06:39;18.70;99.90
8043;DHT22;4064;48.132;11.366;2022-08-19T10:09:07;18.70;99.90
8043;DHT22;4064;48.132;11.366;2022-08-19T10:11:40;18.70;99.90
8043;DHT22;4064;48.132;11.366;2022-08-19T10:14:06;18.80;99.90
8043;DHT22;4064;48.132;11.366;2022-08-19T10:16:33;18.80;99.90
8043;DHT22;4064;48.132;11.366;2022-08-19T10:18:58;18.80;99.90
8043;DHT22;4064;48.132;11.366;2022-08-19T10:21:30;18.80;99.90
8043;DHT22;4064;48.132;11.366;2022-08-19T10:23:58;18.90;99.90
8043;DHT22;4064;48.132;11.366;2022-08-19T10:26:28;18.90;99.90
8043;DHT22;4064;48.132;11.366;2022-08-19T10:28:55;19.00;99.90
8043;DHT22;4064;48.132;11.366;2022-08-19T10:31:24;19.00;99.90
8043;DHT22;4064;48.132;11.366;2022-08-19T10:33:50;19.00;99.90
8043;DHT22;4064;48.132;11.366;2022-08-19T10:36:22;19.10;99.90
8043;DHT22;4064;48.132;11.366;2022-08-19T10:38:50;19.20;99.90
8043;DHT22;4064;48.132;11.366;2022-08-19T10:41:19;19.20;99.90
8043;DHT22;4064;48.132;11.366;2022-08-19T10:43:46;19.30;99.90
8043;DHT22;4064;48.132;11.366;2022-08-19T10:46:14;19.40;99.90
8043;DHT22;4064;48.132;11.366;2022-08-19T10:48:41;19.40;99.90
8043;DHT22;4064;48.132;11.366;2022-08-19T10:51:07;19.30;99.90
8043;DHT22;4064;48.132;11.366;2022-08-19T10:53:52;19.40;99.90
8043;DHT22;4064;48.132;11.366;2022-08-19T10:56:18;19.50;99.90
8043;DHT22;4064;48.132;11.366;2022-08-19T10:59:03;19.50;99.90
8043;DHT22;4064;48.132;11.366;2022-08-19T11:01:30;19.60;99.90
8043;DHT22;4064;48.132;11.366;2022-08-19T11:03:57;19.60;99.90
8043;DHT22;4064;48.132;11.366;2022-08-19T11:06:23;19.70;99.90
8043;DHT22;4064;48.132;11.366;2022-08-19T11:08:53;19.90;99.90
8043;DHT22;4064;48.132;11.366;2022-08-19T11:11:20;20.00;99.90
8043;DHT22;4064;48.132;11.366;2022-08-19T11:13:47;20.10;99.90
8043;DHT22;4064;48.132;11.366;2022-08-19T11:16:16;20.30;99.90
8043;DHT22;4064;48.132;11.366;2022-08-19T11:18:44;20.40;99.90
8043;DHT22;4064;48.132;11.366;2022-08-19T11:21:19;20.40;99.90
8043;DHT22;4064;48.132;11.366;2022-08-19T11:23:50;20.50;99.90
8043;DHT22;4064;48.132;11.366;2022-08-19T11:26:17;20.50;99.90
8043;DHT22;4064;48.132;11.366;2022-08-19T11:28:44;20.50;99.90
8043;DHT22;4064;48.132;11.366;2022-08-19T11:31:11;20.60;99.90
8043;DHT22;4064;48.132;11.366;2022-08-19T11:33:38;20.70;99.90
8043;DHT22;4064;48.132;11.366;2022-08-19T11:36:03;20.70;99.90
8043;DHT22;4064;48.132;11.366;2022-08-19T11:38:29;20.80;99.90
8043;DHT22;4064;48.132;11.366;2022-08-19T11:41:00;20.80;99.90
8043;DHT22;4064;48.132;11.366;2022-08-19T11:43:27;20.90;99.90
8043;DHT22;4064;48.132;11.366;2022-08-19T11:45:54;21.00;99.90
8043;DHT22;4064;48.132;11.366;2022-08-19T11:48:21;20.90;99.90
8043;DHT22;4064;48.132;11.366;2022-08-19T11:50:51;20.90;99.90
8043;DHT22;4064;48.132;11.366;2022-08-19T11:53:19;20.90;99.90
8043;DHT22;4064;48.132;11.366;2022-08-19T11:55:46;20.80;99.90
8043;DHT22;4064;48.132;11.366;2022-08-19T11:58:14;20.80;99.90
8043;DHT22;4064;48.132;11.366;2022-08-19T12:00:41;20.80;99.90
8043;DHT22;4064;48.132;11.366;2022-08-19T12:03:07;20.80;99.90
8043;DHT22;4064;48.132;11.366;2022-08-19T12:05:35;20.80;99.90
8043;DHT22;4064;48.132;11.366;2022-08-19T12:08:01;20.80;99.90
8043;DHT22;4064;48.132;11.366;2022-08-19T12:10:27;20.80;99.90
8043;DHT22;4064;48.132;11.366;2022-08-19T12:12:53;20.80;99.90
8043;DHT22;4064;48.132;11.366;2022-08-19T12:15:19;20.90;99.90
8043;DHT22;4064;48.132;11.366;2022-08-19T12:17:45;20.80;99.90
8043;DHT22;4064;48.132;11.366;2022-08-19T12:20:12;20.80;99.90
8043;DHT22;4064;48.132;11.366;2022-08-19T12:22:39;20.80;99.90
8043;DHT22;4064;48.132;11.366;2022-08-19T12:25:10;20.70;99.90
8043;DHT22;4064;48.132;11.366;2022-08-19T12:27:37;20.80;99.90
8043;DHT22;4064;48.132;11.366;2022-08-19T12:30:04;20.80;99.90
8043;DHT22;4064;48.132;11.366;2022-08-19T12:32:30;20.90;99.90
8043;DHT22;4064;48.132;11.366;2022-08-19T12:34:56;20.90;99.90
8043;DHT22;4064;48.132;11.366;2022-08-19T12:37:22;21.00;99.90
8043;DHT22;4064;48.132;11.366;2022-08-19T12:39:48;21.00;99.90
8043;DHT22;4064;48.132;11.366;2022-08-19T12:42:14;21.00;99.90
8043;DHT22;4064;48.132;11.366;2022-08-19T12:44:41;20.90;99.90
8043;DHT22;4064;48.132;11.366;2022-08-19T12:47:08;20.90;99.90
8043;DHT22;4064;48.132;11.366;2022-08-19T12:49:36;20.90;99.90
8043;DHT22;4064;48.132;11.366;2022-08-19T12:52:06;20.80;99.90
8043;DHT22;4064;48.132;11.366;2022-08-19T12:54:35;20.80;99.90
8043;DHT22;4064;48.132;11.366;2022-08-19T12:57:05;20.60;99.90
8043;DHT22;4064;48.132;11.366;2022-08-19T12:59:31;20.50;99.90
8043;DHT22;4064;48.132;11.366;2022-08-19T13:01:57;20.50;99.90
8043;DHT22;4064;48.132;11.366;2022-08-19T13:04:23;20.50;99.90
8043;DHT22;4064;48.132;11.366;2022-08-19T13:06:48;20.40;99.90
8043;DHT22;4064;48.132;11.366;2022-08-19T13:09:14;20.50;99.90
8043;DHT22;4064;48.132;11.366;2022-08-19T13:11:40;20.50;99.90
8043;DHT22;4064;48.132;11.366;2022-08-19T13:14:06;20.50;99.90
8043;DHT22;4064;48.132;11.366;2022-08-19T13:16:31;20.50;99.90
8043;DHT22;4064;48.132;11.366;2022-08-19T13:18:58;20.50;99.90
8043;DHT22;4064;48.132;11.366;2022-08-19T13:21:26;20.40;99.90
8043;DHT22;4064;48.132;11.366;2022-08-19T13:23:54;20.40;99.90
8043;DHT22;4064;48.132;11.366;2022-08-19T13:26:20;20.40;99.90
8043;DHT22;4064;48.132;11.366;2022-08-19T13:28:46;20.40;99.90
8043;DHT22;4064;48.132;11.366;2022-08-19T13:31:33;20.30;99.90
8043;DHT22;4064;48.132;11.366;2022-08-19T13:34:24;20.30;99.90
8043;DHT22;4064;48.132;11.366;2022-08-19T13:36:52;20.30;99.90
8043;DHT22;4064;48.132;11.366;2022-08-19T13:39:19;20.20;99.90
8043;DHT22;4064;48.132;11.366;2022-08-19T13:41:46;20.20;99.90
8043;DHT22;4064;48.132;11.366;2022-08-19T13:44:14;20.30;99.90
8043;DHT22;4064;48.132;11.366;2022-08-19T13:46:41;20.30;99.90
8043;DHT22;4064;48.132;11.366;2022-08-19T13:49:11;20.40;99.90
8043;DHT22;4064;48.132;11.366;2022-08-19T13:51:39;20.50;99.90
8043;DHT22;4064;48.132;11.366;2022-08-19T13:54:08;20.50;99.90
8043;DHT22;4064;48.132;11.366;2022-08-19T13:56:34;20.60;99.90
8043;DHT22;4064;48.132;11.366;2022-08-19T13:59:01;20.70;99.90
8043;DHT22;4064;48.132;11.366;2022-08-19T14:01:27;20.70;99.90
8043;DHT22;4064;48.132;11.366;2022-08-19T14:03:53;20.70;99.90
8043;DHT22;4064;48.132;11.366;2022-08-19T14:06:19;20.70;99.90
8043;DHT22;4064;48.132;11.366;2022-08-19T14:08:45;20.70;99.90
8043;DHT22;4064;48.132;11.366;2022-08-19T14:11:11;20.80;99.90
8043;DHT22;4064;48.132;11.366;2022-08-19T14:13:37;20.70;99.90
8043;DHT22;4064;48.132;11.366;2022-08-19T14:16:10;20.70;99.90
8043;DHT22;4064;48.132;11.366;2022-08-19T14:18:37;20.80;99.90
8043;DHT22;4064;48.132;11.366;2022-08-19T14:21:04;20.70;99.90
8043;DHT22;4064;48.132;11.366;2022-08-19T14:23:31;20.60;99.90
8043;DHT22;4064;48.132;11.366;2022-08-19T14:26:21;20.50;99.90
8043;DHT22;4064;48.132;11.366;2022-08-19T14:28:47;20.40;99.90
8043;DHT22;4064;48.132;11.366;2022-08-19T14:31:15;20.40;99.90
8043;DHT22;4064;48.132;11.366;2022-08-19T14:33:43;20.30;99.90
8043;DHT22;4064;48.132;11.366;2022-08-19T14:36:09;20.30;99.90
8043;DHT22;4064;48.132;11.366;2022-08-19T14:38:35;20.30;99.90
8043;DHT22;4064;48.132;11.366;2022-08-19T14:41:20;20.30;99.90
8043;DHT22;4064;48.132;11.366;2022-08-19T14:43:48;20.20;99.90
8043;DHT22;4064;48.132;11.366;2022-08-19T14:46:17;20.10;99.90
8043;DHT22;4064;48.132;11.366;2022-08-19T14:48:45;20.10;99.90
8043;DHT22;4064;48.132;11.366;2022-08-19T14:51:11;20.10;99.90
8043;DHT22;4064;48.132;11.366;2022-08-19T14:53:37;20.10;99.90
8043;DHT22;4064;48.132;11.366;2022-08-19T14:56:13;20.10;99.90
8043;DHT22;4064;48.132;11.366;2022-08-19T14:58:41;20.10;99.90
8043;DHT22;4064;48.132;11.366;2022-08-19T15:01:08;20.10;99.90
8043;DHT22;4064;48.132;11.366;2022-08-19T15:03:34;20.10;99.90
8043;DHT22;4064;48.132;11.366;2022-08-19T15:06:02;20.20;99.90
8043;DHT22;4064;48.132;11.366;2022-08-19T15:08:30;20.10;99.90
8043;DHT22;4064;48.132;11.366;2022-08-19T15:10:57;20.10;99.90
8043;DHT22;4064;48.132;11.366;2022-08-19T15:13:25;20.10;99.90
8043;DHT22;4064;48.132;11.366;2022-08-19T15:15:51;20.00;99.90
8043;DHT22;4064;48.132;11.366;2022-08-19T15:18:20;20.10;99.90
8043;DHT22;4064;48.132;11.366;2022-08-19T15:20:48;20.00;99.90
8043;DHT22;4064;48.132;11.366;2022-08-19T15:23:15;20.00;99.90
8043;DHT22;4064;48.132;11.366;2022-08-19T15:25:41;19.90;99.90
8043;DHT22;4064;48.132;11.366;2022-08-19T15:28:08;19.80;99.90
8043;DHT22;4064;48.132;11.366;2022-08-19T15:30:37;19.70;99.90
8043;DHT22;4064;48.132;11.366;2022-08-19T15:33:03;19.70;99.90
8043;DHT22;4064;48.132;11.366;2022-08-19T15:35:29;19.70;99.90
8043;DHT22;4064;48.132;11.366;2022-08-19T15:37:54;19.70;99.90
8043;DHT22;4064;48.132;11.366;2022-08-19T15:40:22;19.70;99.90
8043;DHT22;4064;48.132;11.366;2022-08-19T15:42:48;19.60;99.90
8043;DHT22;4064;48.132;11.366;2022-08-19T15:45:15;19.60;99.90
8043;DHT22;4064;48.132;11.366;2022-08-19T15:47:41;19.60;99.90
8043;DHT22;4064;48.132;11.366;2022-08-19T15:50:07;19.60;99.90
8043;DHT22;4064;48.132;11.366;2022-08-19T15:52:34;19.60;99.90
8043;DHT22;4064;48.132;11.366;2022-08-19T15:55:00;19.50;99.90
8043;DHT22;4064;48.132;11.366;2022-08-19T15:57:27;19.50;99.90
8043;DHT22;4064;48.132;11.366;2022-08-19T15:59:53;19.40;99.90
8043;DHT22;4064;48.132;11.366;2022-08-19T16:02:37;19.40;99.90
8043;DHT22;4064;48.132;11.366;2022-08-19T16:05:24;19.30;99.90
8043;DHT22;4064;48.132;11.366;2022-08-19T16:08:09;19.30;99.90